sensor_id;sensor_type;location;lat;lon;timestamp;temperature;humidity
20125;DHT22;10223;50.862;4.360;2023-09-18T00:02:02;22.20;99.90
20125;DHT22;10223;50.862;4.360;2023-09-18T00:04:29;22.30;99.90
20125;DHT22;10223;50.862;4.360;2023-09-18T00:06:55;22.40;99.90
20125;DHT22;10223;50.862;4.360;2023-09-18T00:09:22;22.30;99.90
20125;DHT22;10223;50.862;4.360;2023-09-18T00:11:50;22.50;99.90
20125;DHT22;10223;50.862;4.360;2023-09-18T00:14:18;22.40;99.90
20125;DHT22;10223;50.862;4.360;2023-09-18T00:16:45;22.50;99.90
20125;DHT22;10223;50.862;4.360;2023-09-18T00:19:12;22.60;99.90
20125;DHT22;10223;50.862;4.360;2023-09-18T00:21:38;22.50;99.90
20125;DHT22;10223;50.862;4.360;2023-09-18T00:24:06;22.50;99.90
20125;DHT22;10223;50.862;4.360;2023-09-18T00:26:33;22.50;99.90
20125;DHT22;10223;50.862;4.360;2023-09-18T00:29:02;22.40;99.90
20125;DHT22;10223;50.862;4.360;2023-09-18T00:31:28;22.40;99.90
20125;DHT22;10223;50.862;4.360;2023-09-18T00:33:55;22.40;99.90
20125;DHT22;10223;50.862;4.360;2023-09-18T00:36:22;22.40;99.90
20125;DHT22;10223;50.862;4.360;2023-09-18T00:38:49;22.30;99.90
20125;DHT22;10223;50.862;4.360;2023-09-18T00:41:16;22.20;99.90
20125;DHT22;10223;50.862;4.360;2023-09-18T00:43:42;22.20;99.90
20125;DHT22;10223;50.862;4.360;2023-09-18T00:46:11;22.10;99.90
20125;DHT22;10223;50.862;4.360;2023-09-18T00:48:38;22.00;99.90
20125;DHT22;10223;50.862;4.360;2023-09-18T00:51:05;21.80;99.90
20125;DHT22;10223;50.862;4.360;2023-09-18T00:53:32;21.70;99.90
20125;DHT22;10223;50.862;4.360;2023-09-18T00:56:00;21.60;99.90
20125;DHT22;10223;50.862;4.360;2023-09-18T00:58:27;21.50;99.90
20125;DHT22;10223;50.862;4.360;2023-09-18T01:00:55;21.20;99.90
20125;DHT22;10223;50.862;4.360;2023-09-18T01:03:23;21.20;99.90
20125;DHT22;10223;50.862;4.360;2023-09-18T01:05:51;21.10;99.90
20125;DHT22;10223;50.862;4.360;2023-09-18T01:08:17;21.20;99.90
20125;DHT22;10223;50.862;4.360;2023-09-18T01:10:48;21.20;99.90
20125;DHT22;10223;50.862;4.360;2023-09-18T01:13:23;21.20;99.90
20125;DHT22;10223;50.862;4.360;2023-09-18T01:15:54;21.20;99.90
20125;DHT22;10223;50.862;4.360;2023-09-18T01:18:25;21.10;99.90
20125;DHT22;10223;50.862;4.360;2023-09-18T01:20:52;21.20;99.90
20125;DHT22;10223;50.862;4.360;2023-09-18T01:23:20;21.20;99.90
20125;DHT22;10223;50.862;4.360;2023-09-18T01:25:47;21.10;99.90
20125;DHT22;10223;50.862;4.360;2023-09-18T01:28:14;21.10;99.90
20125;DHT22;10223;50.862;4.360;2023-09-18T01:30:41;21.10;99.90
20125;DHT22;10223;50.862;4.360;2023-09-18T01:33:09;21.10;99.90
20125;DHT22;10223;50.862;4.360;2023-09-18T01:35:37;21.00;99.90
20125;DHT22;10223;50.862;4.360;2023-09-18T01:38:04;21.20;99.90
20125;DHT22;10223;50.862;4.360;2023-09-18T01:40:33;21.00;99.90
20125;DHT22;10223;50.862;4.360;2023-09-18T01:43:00;20.90;99.90
20125;DHT22;10223;50.862;4.360;2023-09-18T01:45:27;20.80;99.90
20125;DHT22;10223;50.862;4.360;2023-09-18T01:47:54;20.80;99.90
20125;DHT22;10223;50.862;4.360;2023-09-18T01:50:21;20.80;99.90
20125;DHT22;10223;50.862;4.360;2023-09-18T01:52:49;20.80;99.90
20125;DHT22;10223;50.862;4.360;2023-09-18T01:55:16;20.90;99.90
20125;DHT22;10223;50.862;4.360;2023-09-18T01:57:44;20.90;99.90
20125;DHT22;10223;50.862;4.360;2023-09-18T02:00:13;20.90;99.90
20125;DHT22;10223;50.862;4.360;2023-09-18T02:02:40;20.70;99.90
20125;DHT22;10223;50.862;4.360;2023-09-18T02:05:07;20.80;99.90
20125;DHT22;10223;50.862;4.360;2023-09-18T02:07:33;20.80;99.90
20125;DHT22;10223;50.862;4.360;2023-09-18T02:10:00;20.80;99.90
20125;DHT22;10223;50.862;4.360;2023-09-18T02:12:28;20.80;99.90
20125;DHT22;10223;50.862;4.360;2023-09-18T02:14:56;20.90;99.90
20125;DHT22;10223;50.862;4.360;2023-09-18T02:17:31;20.70;99.90
20125;DHT22;10223;50.862;4.360;2023-09-18T02:19:58;20.70;99.90
20125;DHT22;10223;50.862;4.360;2023-09-18T02:22:26;20.60;99.90
20125;DHT22;10223;50.862;4.360;2023-09-18T02:24:53;20.60;99.90
20125;DHT22;10223;50.862;4.360;2023-09-18T02:27:20;20.70;99.90
20125;DHT22;10223;50.862;4.360;2023-09-18T02:29:46;20.70;99.90
20125;DHT22;10223;50.862;4.360;2023-09-18T02:32:16;20.60;99.90
20125;DHT22;10223;50.862;4.360;2023-09-18T02:34:44;20.60;99.90
20125;DHT22;10223;50.862;4.360;2023-09-18T02:37:11;20.50;99.90
20125;DHT22;10223;50.862;4.360;2023-09-18T02:39:38;20.60;99.90
20125;DHT22;10223;50.862;4.360;2023-09-18T02:42:05;20.50;99.90
20125;DHT22;10223;50.862;4.360;2023-09-18T02:44:31;20.60;99.90
20125;DHT22;10223;50.862;4.360;2023-09-18T02:46:59;20.60;99.90
20125;DHT22;10223;50.862;4.360;2023-09-18T02:49:27;20.60;99.90
20125;DHT22;10223;50.862;4.360;2023-09-18T02:51:55;20.60;99.90
20125;DHT22;10223;50.862;4.360;2023-09-18T02:54:22;20.70;99.90
20125;DHT22;10223;50.862;4.360;2023-09-18T02:56:48;20.60;99.90
20125;DHT22;10223;50.862;4.360;2023-09-18T02:59:15;20.60;99.90
20125;DHT22;10223;50.862;4.360;2023-09-18T03:01:42;20.70;99.90
20125;DHT22;10223;50.862;4.360;2023-09-18T03:04:09;20.80;99.90
20125;DHT22;10223;50.862;4.360;2023-09-18T03:06:39;20.90;99.90
20125;DHT22;10223;50.862;4.360;2023-09-18T03:09:06;21.00;99.90
20125;DHT22;10223;50.862;4.360;2023-09-18T03:11:33;21.00;99.90
20125;DHT22;10223;50.862;4.360;2023-09-18T03:14:00;21.10;99.90
20125;DHT22;10223;50.862;4.360;2023-09-18T03:16:27;21.20;99.90
20125;DHT22;10223;50.862;4.360;2023-09-18T03:18:53;21.40;99.90
20125;DHT22;10223;50.862;4.360;2023-09-18T03:21:20;21.50;99.90
20125;DHT22;10223;50.862;4.360;2023-09-18T03:23:49;21.60;99.90
20125;DHT22;10223;50.862;4.360;2023-09-18T03:26:15;21.60;99.90
20125;DHT22;10223;50.862;4.360;2023-09-18T03:28:42;21.60;99.90
20125;DHT22;10223;50.862;4.360;2023-09-18T03:31:09;21.50;99.90
20125;DHT22;10223;50.862;4.360;2023-09-18T03:33:36;21.50;99.90
20125;DHT22;10223;50.862;4.360;2023-09-18T03:36:03;21.50;99.90
20125;DHT22;10223;50.862;4.360;2023-09-18T03:38:30;21.50;99.90
20125;DHT22;10223;50.862;4.360;2023-09-18T03:41:00;21.50;99.90
20125;DHT22;10223;50.862;4.360;2023-09-18T03:43:27;21.40;99.90
20125;DHT22;10223;50.862;4.360;2023-09-18T03:45:54;21.30;99.90
20125;DHT22;10223;50.862;4.360;2023-09-18T03:48:21;21.30;99.90
20125;DHT22;10223;50.862;4.360;2023-09-18T03:50:48;21.10;99.90
20125;DHT22;10223;50.862;4.360;2023-09-18T03:53:14;21.00;99.90
20125;DHT22;10223;50.862;4.360;2023-09-18T03:55:41;20.90;99.90
20125;DHT22;10223;50.862;4.360;2023-09-18T03:58:09;20.80;99.90
20125;DHT22;10223;50.862;4.360;2023-09-18T04:00:36;20.70;99.90
20125;DHT22;10223;50.862;4.360;2023-09-18T04:03:03;20.80;99.90
20125;DHT22;10223;50.862;4.360;2023-09-18T04:05:30;20.70;99.90
20125;DHT22;10223;50.862;4.360;2023-09-18T04:07:57;20.70;99.90
20125;DHT22;10223;50.862;4.360;2023-09-18T04:10:26;20.70;99.90
20125;DHT22;10223;50.862;4.360;2023-09-18T04:12:52;20.70;99.90
20125;DHT22;10223;50.862;4.360;2023-09-18T04:15:21;20.60;99.90
20125;DHT22;10223;50.862;4.360;2023-09-18T04:17:48;20.50;99.90
20125;DHT22;10223;50.862;4.360;2023-09-18T04:20:15;20.50;99.90
20125;DHT22;10223;50.862;4.360;2023-09-18T04:22:43;20.50;99.90
20125;DHT22;10223;50.862;4.360;2023-09-18T04:25:10;20.50;99.90
20125;DHT22;10223;50.862;4.360;2023-09-18T04:27:37;20.50;99.90
20125;DHT22;10223;50.862;4.360;2023-09-18T04:30:05;20.50;99.90
20125;DHT22;10223;50.862;4.360;2023-09-18T04:32:36;20.40;99.90
20125;DHT22;10223;50.862;4.360;2023-09-18T04:35:03;20.30;99.90
20125;DHT22;10223;50.862;4.360;2023-09-18T04:37:30;20.40;99.90
20125;DHT22;10223;50.862;4.360;2023-09-18T04:39:58;20.30;99.90
20125;DHT22;10223;50.862;4.360;2023-09-18T04:42:24;20.30;99.90
20125;DHT22;10223;50.862;4.360;2023-09-18T04:44:51;20.30;99.90
20125;DHT22;10223;50.862;4.360;2023-09-18T04:47:18;20.20;99.90
20125;DHT22;10223;50.862;4.360;2023-09-18T04:49:46;20.20;99.90
20125;DHT22;10223;50.862;4.360;2023-09-18T04:52:14;20.20;99.90
20125;DHT22;10223;50.862;4.360;2023-09-18T04:54:41;20.20;99.90
20125;DHT22;10223;50.862;4.360;2023-09-18T04:57:08;20.20;99.90
20125;DHT22;10223;50.862;4.360;2023-09-18T04:59:35;20.10;99.90
20125;DHT22;10223;50.862;4.360;2023-09-18T05:02:02;20.10;99.90
20125;DHT22;10223;50.862;4.360;2023-09-18T05:04:30;20.10;99.90
20125;DHT22;10223;50.862;4.360;2023-09-18T05:06:58;20.00;99.90
20125;DHT22;10223;50.862;4.360;2023-09-18T05:09:27;20.00;99.90
20125;DHT22;10223;50.862;4.360;2023-09-18T05:11:54;20.00;99.90
20125;DHT22;10223;50.862;4.360;2023-09-18T05:14:21;19.90;99.90
20125;DHT22;10223;50.862;4.360;2023-09-18T05:16:48;19.90;99.90
20125;DHT22;10223;50.862;4.360;2023-09-18T05:19:15;19.90;99.90
20125;DHT22;10223;50.862;4.360;2023-09-18T05:21:41;19.90;99.90
20125;DHT22;10223;50.862;4.360;2023-09-18T05:24:10;19.80;99.90
20125;DHT22;10223;50.862;4.360;2023-09-18T05:26:37;19.80;99.90
20125;DHT22;10223;50.862;4.360;2023-09-18T05:29:04;19.80;99.90
20125;DHT22;10223;50.862;4.360;2023-09-18T05:31:30;19.70;99.90
20125;DHT22;10223;50.862;4.360;2023-09-18T05:33:58;19.70;99.90
20125;DHT22;10223;50.862;4.360;2023-09-18T05:36:25;19.70;99.90
20125;DHT22;10223;50.862;4.360;2023-09-18T05:38:52;19.70;99.90
20125;DHT22;10223;50.862;4.360;2023-09-18T05:41:20;19.70;99.90
20125;DHT22;10223;50.862;4.360;2023-09-18T05:43:51;19.70;99.90
20125;DHT22;10223;50.862;4.360;2023-09-18T05:46:18;19.70;99.90
20125;DHT22;10223;50.862;4.360;2023-09-18T05:48:44;19.70;99.90
20125;DHT22;10223;50.862;4.360;2023-09-18T05:51:11;19.80;99.90
20125;DHT22;10223;50.862;4.360;2023-09-18T05:53:38;19.70;99.90
20125;DHT22;10223;50.862;4.360;2023-09-18T05:56:05;19.80;99.90
20125;DHT22;10223;50.862;4.360;2023-09-18T05:58:34;19.60;99.90
20125;DHT22;10223;50.862;4.360;2023-09-18T06:01:01;19.50;99.90
20125;DHT22;10223;50.862;4.360;2023-09-18T06:03:28;19.40;99.90
20125;DHT22;10223;50.862;4.360;2023-09-18T06:05:56;19.60;99.90
20125;DHT22;10223;50.862;4.360;2023-09-18T06:08:23;19.60;99.90
20125;DHT22;10223;50.862;4.360;2023-09-18T06:10:51;19.50;99.90
20125;DHT22;10223;50.862;4.360;2023-09-18T06:13:19;19.50;99.90
20125;DHT22;10223;50.862;4.360;2023-09-18T06:15:48;19.60;99.90
20125;DHT22;10223;50.862;4.360;2023-09-18T06:18:16;19.60;99.90
20125;DHT22;10223;50.862;4.360;2023-09-18T06:20:43;19.50;99.90
20125;DHT22;10223;50.862;4.360;2023-09-18T06:23:10;19.60;99.90
20125;DHT22;10223;50.862;4.360;2023-09-18T06:25:37;19.50;99.90
20125;DHT22;10223;50.862;4.360;2023-09-18T06:28:04;19.40;99.90
20125;DHT22;10223;50.862;4.360;2023-09-18T06:30:31;19.50;99.90
20125;DHT22;10223;50.862;4.360;2023-09-18T06:32:59;19.50;99.90
20125;DHT22;10223;50.862;4.360;2023-09-18T06:35:26;19.40;99.90
20125;DHT22;10223;50.862;4.360;2023-09-18T06:37:53;19.40;99.90
20125;DHT22;10223;50.862;4.360;2023-09-18T06:40:23;19.50;99.90
20125;DHT22;10223;50.862;4.360;2023-09-18T06:42:51;19.40;99.90
20125;DHT22;10223;50.862;4.360;2023-09-18T06:45:18;19.40;99.90
20125;DHT22;10223;50.862;4.360;2023-09-18T06:47:45;19.30;99.90
20125;DHT22;10223;50.862;4.360;2023-09-18T06:50:13;19.40;99.90
20125;DHT22;10223;50.862;4.360;2023-09-18T06:52:40;19.30;99.90
20125;DHT22;10223;50.862;4.360;2023-09-18T06:55:08;19.20;99.90
20125;DHT22;10223;50.862;4.360;2023-09-18T06:57:34;19.20;99.90
20125;DHT22;10223;50.862;4.360;2023-09-18T07:00:01;19.20;99.90
20125;DHT22;10223;50.862;4.360;2023-09-18T07:02:29;19.20;99.90
20125;DHT22;10223;50.862;4.360;2023-09-18T07:04:56;19.30;99.90
20125;DHT22;10223;50.862;4.360;2023-09-18T07:07:24;19.30;99.90
20125;DHT22;10223;50.862;4.360;2023-09-18T07:09:51;19.20;99.90
20125;DHT22;10223;50.862;4.360;2023-09-18T07:12:21;19.30;99.90
20125;DHT22;10223;50.862;4.360;2023-09-18T07:14:51;19.40;99.90
20125;DHT22;10223;50.862;4.360;2023-09-18T07:17:18;19.30;99.90
20125;DHT22;10223;50.862;4.360;2023-09-18T07:19:45;19.20;99.90
20125;DHT22;10223;50.862;4.360;2023-09-18T07:22:12;19.20;99.90
20125;DHT22;10223;50.862;4.360;2023-09-18T07:24:40;19.20;99.90
20125;DHT22;10223;50.862;4.360;2023-09-18T07:27:08;19.30;99.90
20125;DHT22;10223;50.862;4.360;2023-09-18T07:29:35;19.40;99.90
20125;DHT22;10223;50.862;4.360;2023-09-18T07:32:02;19.40;99.90
20125;DHT22;10223;50.862;4.360;2023-09-18T07:34:29;19.40;99.90
20125;DHT22;10223;50.862;4.360;2023-09-18T07:36:55;19.50;99.90
20125;DHT22;10223;50.862;4.360;2023-09-18T07:39:22;19.40;99.90
20125;DHT22;10223;50.862;4.360;2023-09-18T07:41:50;19.80;99.90
20125;DHT22;10223;50.862;4.360;2023-09-18T07:44:19;20.00;99.90
20125;DHT22;10223;50.862;4.360;2023-09-18T07:46:46;20.20;99.90
20125;DHT22;10223;50.862;4.360;2023-09-18T07:49:13;20.50;99.90
20125;DHT22;10223;50.862;4.360;2023-09-18T07:51:39;20.80;99.90
20125;DHT22;10223;50.862;4.360;2023-09-18T07:54:07;21.10;99.90
20125;DHT22;10223;50.862;4.360;2023-09-18T07:56:34;21.70;99.90
20125;DHT22;10223;50.862;4.360;2023-09-18T07:59:03;22.10;99.90
20125;DHT22;10223;50.862;4.360;2023-09-18T08:01:30;21.80;99.90
20125;DHT22;10223;50.862;4.360;2023-09-18T08:03:58;21.50;99.90
20125;DHT22;10223;50.862;4.360;2023-09-18T08:06:26;21.60;99.90
20125;DHT22;10223;50.862;4.360;2023-09-18T08:08:53;21.70;99.90
20125;DHT22;10223;50.862;4.360;2023-09-18T08:11:20;21.40;99.90
20125;DHT22;10223;50.862;4.360;2023-09-18T08:13:47;21.30;99.90
20125;DHT22;10223;50.862;4.360;2023-09-18T08:16:16;20.90;99.90
20125;DHT22;10223;50.862;4.360;2023-09-18T08:18:43;20.70;99.90
20125;DHT22;10223;50.862;4.360;2023-09-18T08:21:10;20.50;99.90
20125;DHT22;10223;50.862;4.360;2023-09-18T08:23:39;20.20;99.90
20125;DHT22;10223;50.862;4.360;2023-09-18T08:26:06;20.20;99.90
20125;DHT22;10223;50.862;4.360;2023-09-18T08:28:33;20.20;99.90
20125;DHT22;10223;50.862;4.360;2023-09-18T08:31:01;20.10;99.90
20125;DHT22;10223;50.862;4.360;2023-09-18T08:33:29;20.10;99.90
20125;DHT22;10223;50.862;4.360;2023-09-18T08:35:56;20.10;99.90
20125;DHT22;10223;50.862;4.360;2023-09-18T08:38:23;20.10;99.90
20125;DHT22;10223;50.862;4.360;2023-09-18T08:40:50;20.20;99.90
20125;DHT22;10223;50.862;4.360;2023-09-18T08:43:20;20.20;99.90
20125;DHT22;10223;50.862;4.360;2023-09-18T08:45:51;20.20;99.90
20125;DHT22;10223;50.862;4.360;2023-09-18T08:48:19;20.30;99.90
20125;DHT22;10223;50.862;4.360;2023-09-18T08:50:48;20.30;99.90
20125;DHT22;10223;50.862;4.360;2023-09-18T08:53:15;20.30;99.90
20125;DHT22;10223;50.862;4.360;2023-09-18T08:55:41;20.20;99.90
20125;DHT22;10223;50.862;4.360;2023-09-18T08:58:08;20.30;99.90
20125;DHT22;10223;50.862;4.360;2023-09-18T09:00:37;20.20;99.90
20125;DHT22;10223;50.862;4.360;2023-09-18T09:03:04;20.10;99.90
20125;DHT22;10223;50.862;4.360;2023-09-18T09:05:31;20.10;99.90
20125;DHT22;10223;50.862;4.360;2023-09-18T09:08:00;20.10;99.90
20125;DHT22;10223;50.862;4.360;2023-09-18T09:10:27;20.10;99.90
20125;DHT22;10223;50.862;4.360;2023-09-18T09:12:55;20.00;99.90
20125;DHT22;10223;50.862;4.360;2023-09-18T09:15:24;19.90;99.90
20125;DHT22;10223;50.862;4.360;2023-09-18T09:17:52;19.90;99.90
20125;DHT22;10223;50.862;4.360;2023-09-18T09:20:20;20.00;99.90
20125;DHT22;10223;50.862;4.360;2023-09-18T09:22:47;20.00;99.90
20125;DHT22;10223;50.862;4.360;2023-09-18T09:25:24;19.90;99.90
20125;DHT22;10223;50.862;4.360;2023-09-18T09:27:51;19.80;99.90
20125;DHT22;10223;50.862;4.360;2023-09-18T09:30:19;19.80;99.90
20125;DHT22;10223;50.862;4.360;2023-09-18T09:32:48;20.00;99.90
20125;DHT22;10223;50.862;4.360;2023-09-18T09:35:23;20.00;99.90
20125;DHT22;10223;50.862;4.360;2023-09-18T09:37:52;19.90;99.90
20125;DHT22;10223;50.862;4.360;2023-09-18T09:40:23;19.90;99.90
20125;DHT22;10223;50.862;4.360;2023-09-18T09:42:52;20.00;99.90
20125;DHT22;10223;50.862;4.360;2023-09-18T09:45:20;20.10;99.90
20125;DHT22;10223;50.862;4.360;2023-09-18T09:47:47;20.10;99.90
20125;DHT22;10223;50.862;4.360;2023-09-18T09:50:15;20.00;99.90
20125;DHT22;10223;50.862;4.360;2023-09-18T09:52:46;20.00;99.90
20125;DHT22;10223;50.862;4.360;2023-09-18T09:55:24;20.00;99.90
20125;DHT22;10223;50.862;4.360;2023-09-18T09:57:53;20.00;99.90
20125;DHT22;10223;50.862;4.360;2023-09-18T10:00:23;19.80;99.90
20125;DHT22;10223;50.862;4.360;2023-09-18T10:02:57;20.00;99.90
20125;DHT22;10223;50.862;4.360;2023-09-18T10:05:27;19.90;99.90
20125;DHT22;10223;50.862;4.360;2023-09-18T10:07:57;19.80;99.90
20125;DHT22;10223;50.862;4.360;2023-09-18T10:10:30;19.80;99.90
20125;DHT22;10223;50.862;4.360;2023-09-18T10:13:00;19.90;99.90
20125;DHT22;10223;50.862;4.360;2023-09-18T10:15:29;19.90;99.90
20125;DHT22;10223;50.862;4.360;2023-09-18T10:18:00;20.00;99.90
20125;DHT22;10223;50.862;4.360;2023-09-18T10:20:29;20.00;99.90
20125;DHT22;10223;50.862;4.360;2023-09-18T10:22:57;19.80;99.90
20125;DHT22;10223;50.862;4.360;2023-09-18T10:25:29;19.80;99.90
20125;DHT22;10223;50.862;4.360;2023-09-18T10:27:59;19.70;99.90
20125;DHT22;10223;50.862;4.360;2023-09-18T10:30:29;19.80;99.90
20125;DHT22;10223;50.862;4.360;2023-09-18T10:33:00;19.80;99.90
20125;DHT22;10223;50.862;4.360;2023-09-18T10:35:27;19.80;99.90
20125;DHT22;10223;50.862;4.360;2023-09-18T10:37:54;19.70;99.90
20125;DHT22;10223;50.862;4.360;2023-09-18T10:40:22;19.70;99.90
20125;DHT22;10223;50.862;4.360;2023-09-18T10:42:54;19.80;99.90
20125;DHT22;10223;50.862;4.360;2023-09-18T10:45:23;19.70;99.90
20125;DHT22;10223;50.862;4.360;2023-09-18T10:47:52;19.70;99.90
20125;DHT22;10223;50.862;4.360;2023-09-18T10:50:29;19.70;99.90
20125;DHT22;10223;50.862;4.360;2023-09-18T10:52:57;19.80;99.90
20125;DHT22;10223;50.862;4.360;2023-09-18T10:55:24;19.90;99.90
20125;DHT22;10223;50.862;4.360;2023-09-18T10:57:54;20.10;99.90
20125;DHT22;10223;50.862;4.360;2023-09-18T11:00:24;20.40;99.90
20125;DHT22;10223;50.862;4.360;2023-09-18T11:02:52;20.50;99.90
20125;DHT22;10223;50.862;4.360;2023-09-18T11:05:29;20.90;99.90
20125;DHT22;10223;50.862;4.360;2023-09-18T11:08:27;21.30;99.90
20125;DHT22;10223;50.862;4.360;2023-09-18T11:10:56;21.60;99.90
20125;DHT22;10223;50.862;4.360;2023-09-18T11:13:34;21.80;99.90
20125;DHT22;10223;50.862;4.360;2023-09-18T11:16:13;21.90;99.90
20125;DHT22;10223;50.862;4.360;2023-09-18T11:18:40;22.10;99.90
20125;DHT22;10223;50.862;4.360;2023-09-18T11:21:08;22.20;99.90
20125;DHT22;10223;50.862;4.360;2023-09-18T11:23:36;22.20;99.90
20125;DHT22;10223;50.862;4.360;2023-09-18T11:26:08;22.30;99.90
20125;DHT22;10223;50.862;4.360;2023-09-18T11:28:37;22.10;99.90
20125;DHT22;10223;50.862;4.360;2023-09-18T11:31:04;22.30;99.90
20125;DHT22;10223;50.862;4.360;2023-09-18T11:33:34;21.90;99.90
20125;DHT22;10223;50.862;4.360;2023-09-18T11:36:06;21.70;99.90
20125;DHT22;10223;50.862;4.360;2023-09-18T11:38:34;21.40;99.90
20125;DHT22;10223;50.862;4.360;2023-09-18T11:41:23;21.30;99.90
20125;DHT22;10223;50.862;4.360;2023-09-18T11:43:52;21.60;99.90
20125;DHT22;10223;50.862;4.360;2023-09-18T11:46:20;22.30;99.90
20125;DHT22;10223;50.862;4.360;2023-09-18T11:48:48;22.50;99.90
20125;DHT22;10223;50.862;4.360;2023-09-18T11:51:22;22.70;99.90
20125;DHT22;10223;50.862;4.360;2023-09-18T11:53:53;22.60;99.90
20125;DHT22;10223;50.862;4.360;2023-09-18T11:56:21;22.30;99.90
20125;DHT22;10223;50.862;4.360;2023-09-18T11:58:49;22.00;99.90
20125;DHT22;10223;50.862;4.360;2023-09-18T12:01:18;22.10;99.90
20125;DHT22;10223;50.862;4.360;2023-09-18T12:03:45;22.40;99.90
20125;DHT22;10223;50.862;4.360;2023-09-18T12:06:14;22.80;99.90
20125;DHT22;10223;50.862;4.360;2023-09-18T12:08:41;22.90;99.90
20125;DHT22;10223;50.862;4.360;2023-09-18T12:11:08;22.80;99.90
20125;DHT22;10223;50.862;4.360;2023-09-18T12:13:35;22.60;99.90
20125;DHT22;10223;50.862;4.360;2023-09-18T12:16:04;23.00;99.90
20125;DHT22;10223;50.862;4.360;2023-09-18T12:18:33;23.60;99.90
20125;DHT22;10223;50.862;4.360;2023-09-18T12:21:02;23.80;99.90
20125;DHT22;10223;50.862;4.360;2023-09-18T12:23:37;23.80;99.90
20125;DHT22;10223;50.862;4.360;2023-09-18T12:26:05;23.60;99.90
20125;DHT22;10223;50.862;4.360;2023-09-18T12:28:33;24.10;99.90
20125;DHT22;10223;50.862;4.360;2023-09-18T12:31:01;24.20;99.90
20125;DHT22;10223;50.862;4.360;2023-09-18T12:33:35;23.70;99.90
20125;DHT22;10223;50.862;4.360;2023-09-18T12:36:03;23.80;99.90
20125;DHT22;10223;50.862;4.360;2023-09-18T12:38:31;24.10;99.90
20125;DHT22;10223;50.862;4.360;2023-09-18T12:40:57;24.20;99.90
20125;DHT22;10223;50.862;4.360;2023-09-18T12:43:33;24.00;99.90
20125;DHT22;10223;50.862;4.360;2023-09-18T12:46:01;23.70;99.90
20125;DHT22;10223;50.862;4.360;2023-09-18T12:48:29;23.90;99.90
20125;DHT22;10223;50.862;4.360;2023-09-18T12:51:02;23.70;99.90
20125;DHT22;10223;50.862;4.360;2023-09-18T12:53:30;23.50;99.90
20125;DHT22;10223;50.862;4.360;2023-09-18T12:56:05;23.50;99.90
20125;DHT22;10223;50.862;4.360;2023-09-18T12:58:33;23.90;99.90
20125;DHT22;10223;50.862;4.360;2023-09-18T13:01:04;23.60;99.90
20125;DHT22;10223;50.862;4.360;2023-09-18T13:03:34;23.70;99.90
20125;DHT22;10223;50.862;4.360;2023-09-18T13:06:18;24.10;99.90
20125;DHT22;10223;50.862;4.360;2023-09-18T13:08:46;24.70;99.90
20125;DHT22;10223;50.862;4.360;2023-09-18T13:11:13;25.20;99.90
20125;DHT22;10223;50.862;4.360;2023-09-18T13:13:42;25.70;99.90
20125;DHT22;10223;50.862;4.360;2023-09-18T13:16:10;26.30;99.90
20125;DHT22;10223;50.862;4.360;2023-09-18T13:18:38;26.20;99.90
20125;DHT22;10223;50.862;4.360;2023-09-18T13:21:09;26.00;99.90
20125;DHT22;10223;50.862;4.360;2023-09-18T13:23:38;26.40;99.90
20125;DHT22;10223;50.862;4.360;2023-09-18T13:26:06;26.00;99.90
20125;DHT22;10223;50.862;4.360;2023-09-18T13:28:33;25.50;99.90
20125;DHT22;10223;50.862;4.360;2023-09-18T13:31:01;25.50;99.90
20125;DHT22;10223;50.862;4.360;2023-09-18T13:33:30;26.00;99.90
20125;DHT22;10223;50.862;4.360;2023-09-18T13:35:58;26.30;99.90
20125;DHT22;10223;50.862;4.360;2023-09-18T13:38:25;26.40;99.90
20125;DHT22;10223;50.862;4.360;2023-09-18T13:40:54;26.40;99.90
20125;DHT22;10223;50.862;4.360;2023-09-18T13:43:21;26.40;99.90
20125;DHT22;10223;50.862;4.360;2023-09-18T13:45:48;26.40;99.90
20125;DHT22;10223;50.862;4.360;2023-09-18T13:48:17;26.00;99.90
20125;DHT22;10223;50.862;4.360;2023-09-18T13:50:45;25.40;99.90
20125;DHT22;10223;50.862;4.360;2023-09-18T13:53:12;25.00;99.90
20125;DHT22;10223;50.862;4.360;2023-09-18T13:55:39;24.70;99.90
20125;DHT22;10223;50.862;4.360;2023-09-18T13:58:07;24.40;99.90
20125;DHT22;10223;50.862;4.360;2023-09-18T14:00:34;24.10;99.90
20125;DHT22;10223;50.862;4.360;2023-09-18T14:03:02;23.90;99.90
20125;DHT22;10223;50.862;4.360;2023-09-18T14:05:29;23.60;99.90
20125;DHT22;10223;50.862;4.360;2023-09-18T14:07:58;23.50;99.90
20125;DHT22;10223;50.862;4.360;2023-09-18T14:10:26;23.40;99.90
20125;DHT22;10223;50.862;4.360;2023-09-18T14:12:53;23.40;99.90
20125;DHT22;10223;50.862;4.360;2023-09-18T14:15:22;23.30;99.90
20125;DHT22;10223;50.862;4.360;2023-09-18T14:17:48;23.40;99.90
20125;DHT22;10223;50.862;4.360;2023-09-18T14:20:15;23.50;99.90
20125;DHT22;10223;50.862;4.360;2023-09-18T14:22:44;23.40;99.90
20125;DHT22;10223;50.862;4.360;2023-09-18T14:25:11;23.40;99.90
20125;DHT22;10223;50.862;4.360;2023-09-18T14:27:39;23.30;99.90
20125;DHT22;10223;50.862;4.360;2023-09-18T14:30:07;23.20;99.90
20125;DHT22;10223;50.862;4.360;2023-09-18T14:32:37;23.30;99.90
20125;DHT22;10223;50.862;4.360;2023-09-18T14:35:04;23.30;99.90
20125;DHT22;10223;50.862;4.360;2023-09-18T14:37:34;23.20;99.90
20125;DHT22;10223;50.862;4.360;2023-09-18T14:40:01;23.10;99.90
20125;DHT22;10223;50.862;4.360;2023-09-18T14:42:28;22.10;99.90
20125;DHT22;10223;50.862;4.360;2023-09-18T14:44:55;20.50;99.90
20125;DHT22;10223;50.862;4.360;2023-09-18T14:47:22;19.50;99.90
20125;DHT22;10223;50.862;4.360;2023-09-18T14:49:50;19.20;99.90
20125;DHT22;10223;50.862;4.360;2023-09-18T14:52:18;18.90;99.90
20125;DHT22;10223;50.862;4.360;2023-09-18T14:54:46;18.80;99.90
20125;DHT22;10223;50.862;4.360;2023-09-18T14:57:14;18.70;99.90
20125;DHT22;10223;50.862;4.360;2023-09-18T14:59:40;18.80;99.90
20125;DHT22;10223;50.862;4.360;2023-09-18T15:02:12;19.20;99.90
20125;DHT22;10223;50.862;4.360;2023-09-18T15:04:39;19.70;99.90
20125;DHT22;10223;50.862;4.360;2023-09-18T15:07:08;20.00;99.90
20125;DHT22;10223;50.862;4.360;2023-09-18T15:09:36;20.20;99.90
20125;DHT22;10223;50.862;4.360;2023-09-18T15:12:03;20.20;99.90
20125;DHT22;10223;50.862;4.360;2023-09-18T15:14:33;20.10;99.90
20125;DHT22;10223;50.862;4.360;2023-09-18T15:17:00;20.10;99.90
20125;DHT22;10223;50.862;4.360;2023-09-18T15:19:26;20.90;99.90
20125;DHT22;10223;50.862;4.360;2023-09-18T15:21:53;21.60;99.90
20125;DHT22;10223;50.862;4.360;2023-09-18T15:24:23;22.20;99.90
20125;DHT22;10223;50.862;4.360;2023-09-18T15:26:50;22.40;99.90
20125;DHT22;10223;50.862;4.360;2023-09-18T15:29:16;22.30;99.90
20125;DHT22;10223;50.862;4.360;2023-09-18T15:31:43;21.90;99.90
20125;DHT22;10223;50.862;4.360;2023-09-18T15:34:12;21.70;99.90
20125;DHT22;10223;50.862;4.360;2023-09-18T15:36:38;21.30;99.90